sensor_id;sensor_type;location;lat;lon;timestamp;temperature;humidity
9810;DHT22;4944;52.514;13.192;2023-06-10T00:01:26;20.80;97.00
9810;DHT22;4944;52.514;13.192;2023-06-10T00:03:53;20.80;97.00
9810;DHT22;4944;52.514;13.192;2023-06-10T00:06:20;20.80;97.00
9810;DHT22;4944;52.514;13.192;2023-06-10T00:08:49;20.70;97.20
9810;DHT22;4944;52.514;13.192;2023-06-10T00:11:16;20.70;97.60
9810;DHT22;4944;52.514;13.192;2023-06-10T00:13:43;20.60;97.50
9810;DHT22;4944;52.514;13.192;2023-06-10T00:16:12;20.60;97.60
9810;DHT22;4944;52.514;13.192;2023-06-10T00:18:39;20.70;97.60
9810;DHT22;4944;52.514;13.192;2023-06-10T00:21:05;20.60;97.60
9810;DHT22;4944;52.514;13.192;2023-06-10T00:23:32;20.60;97.90
9810;DHT22;4944;52.514;13.192;2023-06-10T00:26:03;20.60;97.90
9810;DHT22;4944;52.514;13.192;2023-06-10T00:28:30;20.60;97.90
9810;DHT22;4944;52.514;13.192;2023-06-10T00:30:56;20.60;98.00
9810;DHT22;4944;52.514;13.192;2023-06-10T00:33:25;20.60;98.10
9810;DHT22;4944;52.514;13.192;2023-06-10T00:35:52;20.60;98.10
9810;DHT22;4944;52.514;13.192;2023-06-10T00:38:19;20.60;98.40
9810;DHT22;4944;52.514;13.192;2023-06-10T00:40:46;20.40;98.30
9810;DHT22;4944;52.514;13.192;2023-06-10T00:43:13;20.40;98.40
9810;DHT22;4944;52.514;13.192;2023-06-10T00:45:39;20.30;98.50
9810;DHT22;4944;52.514;13.192;2023-06-10T00:48:07;20.30;98.50
9810;DHT22;4944;52.514;13.192;2023-06-10T00:50:35;20.40;98.60
9810;DHT22;4944;52.514;13.192;2023-06-10T00:53:04;20.40;98.60
9810;DHT22;4944;52.514;13.192;2023-06-10T00:55:32;20.40;98.60
9810;DHT22;4944;52.514;13.192;2023-06-10T00:57:59;20.30;98.60
9810;DHT22;4944;52.514;13.192;2023-06-10T01:00:27;20.30;98.60
9810;DHT22;4944;52.514;13.192;2023-06-10T01:02:54;20.30;98.60
9810;DHT22;4944;52.514;13.192;2023-06-10T01:05:21;20.30;98.60
9810;DHT22;4944;52.514;13.192;2023-06-10T01:07:56;20.20;98.60
9810;DHT22;4944;52.514;13.192;2023-06-10T01:10:28;20.20;98.60
9810;DHT22;4944;52.514;13.192;2023-06-10T01:12:59;20.20;98.70
9810;DHT22;4944;52.514;13.192;2023-06-10T01:15:28;20.20;98.70
9810;DHT22;4944;52.514;13.192;2023-06-10T01:17:56;20.20;98.70
9810;DHT22;4944;52.514;13.192;2023-06-10T01:20:25;20.10;98.80
9810;DHT22;4944;52.514;13.192;2023-06-10T01:22:54;20.10;98.90
9810;DHT22;4944;52.514;13.192;2023-06-10T01:25:23;20.10;99.00
9810;DHT22;4944;52.514;13.192;2023-06-10T01:27:54;20.10;99.00
9810;DHT22;4944;52.514;13.192;2023-06-10T01:30:28;20.10;98.90
9810;DHT22;4944;52.514;13.192;2023-06-10T01:32:58;20.10;99.00
9810;DHT22;4944;52.514;13.192;2023-06-10T01:35:27;20.10;99.10
9810;DHT22;4944;52.514;13.192;2023-06-10T01:37:57;20.00;99.10
9810;DHT22;4944;52.514;13.192;2023-06-10T01:40:25;19.80;99.50
9810;DHT22;4944;52.514;13.192;2023-06-10T01:42:53;19.90;99.60
9810;DHT22;4944;52.514;13.192;2023-06-10T01:45:20;19.80;99.90
9810;DHT22;4944;52.514;13.192;2023-06-10T01:47:47;19.80;99.60
9810;DHT22;4944;52.514;13.192;2023-06-10T01:50:13;19.80;99.80
9810;DHT22;4944;52.514;13.192;2023-06-10T01:52:42;19.60;99.90
9810;DHT22;4944;52.514;13.192;2023-06-10T01:55:10;19.70;99.90
9810;DHT22;4944;52.514;13.192;2023-06-10T01:57:37;19.70;99.90
9810;DHT22;4944;52.514;13.192;2023-06-10T02:00:04;19.70;99.90
9810;DHT22;4944;52.514;13.192;2023-06-10T02:02:32;19.70;99.90
9810;DHT22;4944;52.514;13.192;2023-06-10T02:04:58;19.60;99.90
9810;DHT22;4944;52.514;13.192;2023-06-10T02:07:25;19.70;99.90
9810;DHT22;4944;52.514;13.192;2023-06-10T02:09:52;19.70;99.90
9810;DHT22;4944;52.514;13.192;2023-06-10T02:12:20;19.60;99.90
9810;DHT22;4944;52.514;13.192;2023-06-10T02:14:47;19.70;99.90
9810;DHT22;4944;52.514;13.192;2023-06-10T02:17:14;19.60;99.90
9810;DHT22;4944;52.514;13.192;2023-06-10T02:19:41;19.60;99.90
9810;DHT22;4944;52.514;13.192;2023-06-10T02:22:09;19.60;99.90
9810;DHT22;4944;52.514;13.192;2023-06-10T02:24:36;19.60;99.90
9810;DHT22;4944;52.514;13.192;2023-06-10T02:27:04;19.60;99.90
9810;DHT22;4944;52.514;13.192;2023-06-10T02:29:34;19.60;99.90
9810;DHT22;4944;52.514;13.192;2023-06-10T02:32:02;19.60;99.90
9810;DHT22;4944;52.514;13.192;2023-06-10T02:34:29;19.60;99.90
9810;DHT22;4944;52.514;13.192;2023-06-10T02:36:56;19.60;99.90
9810;DHT22;4944;52.514;13.192;2023-06-10T02:39:23;19.50;99.90
9810;DHT22;4944;52.514;13.192;2023-06-10T02:41:50;19.40;99.90
9810;DHT22;4944;52.514;13.192;2023-06-10T02:44:18;19.20;99.90
9810;DHT22;4944;52.514;13.192;2023-06-10T02:46:46;19.10;99.90
9810;DHT22;4944;52.514;13.192;2023-06-10T02:49:13;19.20;99.90
9810;DHT22;4944;52.514;13.192;2023-06-10T02:51:40;19.20;99.90
9810;DHT22;4944;52.514;13.192;2023-06-10T02:54:07;19.20;99.90
9810;DHT22;4944;52.514;13.192;2023-06-10T02:56:34;19.20;99.90
9810;DHT22;4944;52.514;13.192;2023-06-10T02:59:02;19.20;99.90
9810;DHT22;4944;52.514;13.192;2023-06-10T03:01:28;19.10;99.90
9810;DHT22;4944;52.514;13.192;2023-06-10T03:03:58;19.10;99.90
9810;DHT22;4944;52.514;13.192;2023-06-10T03:06:25;19.10;99.90
9810;DHT22;4944;52.514;13.192;2023-06-10T03:08:52;19.20;99.90
9810;DHT22;4944;52.514;13.192;2023-06-10T03:11:19;19.20;99.90
9810;DHT22;4944;52.514;13.192;2023-06-10T03:13:46;19.20;99.90
9810;DHT22;4944;52.514;13.192;2023-06-10T03:16:13;19.10;99.90
9810;DHT22;4944;52.514;13.192;2023-06-10T03:18:39;19.10;99.90
9810;DHT22;4944;52.514;13.192;2023-06-10T03:21:08;19.10;99.90
9810;DHT22;4944;52.514;13.192;2023-06-10T03:23:35;19.10;99.90
9810;DHT22;4944;52.514;13.192;2023-06-10T03:26:02;19.10;99.90
9810;DHT22;4944;52.514;13.192;2023-06-10T03:28:30;19.20;99.90
9810;DHT22;4944;52.514;13.192;2023-06-10T03:30:57;19.20;99.90
9810;DHT22;4944;52.514;13.192;2023-06-10T03:33:24;19.20;99.90
9810;DHT22;4944;52.514;13.192;2023-06-10T03:35:51;19.10;99.90
9810;DHT22;4944;52.514;13.192;2023-06-10T03:38:20;19.10;99.90
9810;DHT22;4944;52.514;13.192;2023-06-10T03:40:47;19.10;99.90
9810;DHT22;4944;52.514;13.192;2023-06-10T03:43:14;19.10;99.90
9810;DHT22;4944;52.514;13.192;2023-06-10T03:45:40;19.10;99.90
9810;DHT22;4944;52.514;13.192;2023-06-10T03:48:07;19.10;99.90
9810;DHT22;4944;52.514;13.192;2023-06-10T03:50:34;19.10;99.90
9810;DHT22;4944;52.514;13.192;2023-06-10T03:53:02;19.00;99.90
9810;DHT22;4944;52.514;13.192;2023-06-10T03:55:30;19.00;99.90
9810;DHT22;4944;52.514;13.192;2023-06-10T03:57:57;19.00;99.90
9810;DHT22;4944;52.514;13.192;2023-06-10T04:00:24;19.00;99.90
9810;DHT22;4944;52.514;13.192;2023-06-10T04:02:51;18.90;99.90
9810;DHT22;4944;52.514;13.192;2023-06-10T04:05:19;18.80;99.90
9810;DHT22;4944;52.514;13.192;2023-06-10T04:07:47;18.90;99.90
9810;DHT22;4944;52.514;13.192;2023-06-10T04:10:15;18.90;99.90
9810;DHT22;4944;52.514;13.192;2023-06-10T04:12:44;18.90;99.90
9810;DHT22;4944;52.514;13.192;2023-06-10T04:15:11;18.90;99.90
9810;DHT22;4944;52.514;13.192;2023-06-10T04:17:38;18.90;99.90
9810;DHT22;4944;52.514;13.192;2023-06-10T04:20:08;18.90;99.90
9810;DHT22;4944;52.514;13.192;2023-06-10T04:22:35;18.80;99.90
9810;DHT22;4944;52.514;13.192;2023-06-10T04:25:02;18.90;99.90
9810;DHT22;4944;52.514;13.192;2023-06-10T04:27:29;18.90;99.90
9810;DHT22;4944;52.514;13.192;2023-06-10T04:29:58;19.00;99.90
9810;DHT22;4944;52.514;13.192;2023-06-10T04:32:25;19.00;99.90
9810;DHT22;4944;52.514;13.192;2023-06-10T04:34:52;19.00;99.90
9810;DHT22;4944;52.514;13.192;2023-06-10T04:37:19;19.00;99.90
9810;DHT22;4944;52.514;13.192;2023-06-10T04:39:46;19.00;99.90
9810;DHT22;4944;52.514;13.192;2023-06-10T04:42:13;18.90;99.90
9810;DHT22;4944;52.514;13.192;2023-06-10T04:44:40;18.90;99.90
9810;DHT22;4944;52.514;13.192;2023-06-10T04:47:09;18.90;99.90
9810;DHT22;4944;52.514;13.192;2023-06-10T04:49:36;19.00;99.90
9810;DHT22;4944;52.514;13.192;2023-06-10T04:52:04;19.00;99.90
9810;DHT22;4944;52.514;13.192;2023-06-10T04:54:31;19.00;99.90
9810;DHT22;4944;52.514;13.192;2023-06-10T04:56:58;18.80;99.90
9810;DHT22;4944;52.514;13.192;2023-06-10T04:59:25;18.90;99.90
9810;DHT22;4944;52.514;13.192;2023-06-10T05:01:52;18.80;99.90
9810;DHT22;4944;52.514;13.192;2023-06-10T05:04:21;18.80;99.90
9810;DHT22;4944;52.514;13.192;2023-06-10T05:06:48;18.90;99.90
9810;DHT22;4944;52.514;13.192;2023-06-10T05:09:15;19.00;99.90
9810;DHT22;4944;52.514;13.192;2023-06-10T05:11:42;19.00;99.90
9810;DHT22;4944;52.514;13.192;2023-06-10T05:14:10;19.10;99.90
9810;DHT22;4944;52.514;13.192;2023-06-10T05:16:37;19.20;99.90
9810;DHT22;4944;52.514;13.192;2023-06-10T05:19:04;19.20;99.90
9810;DHT22;4944;52.514;13.192;2023-06-10T05:21:32;19.20;99.90
9810;DHT22;4944;52.514;13.192;2023-06-10T05:23:59;19.10;99.90
9810;DHT22;4944;52.514;13.192;2023-06-10T05:26:26;19.10;99.90
9810;DHT22;4944;52.514;13.192;2023-06-10T05:28:54;19.00;99.90
9810;DHT22;4944;52.514;13.192;2023-06-10T05:31:22;19.10;99.90
9810;DHT22;4944;52.514;13.192;2023-06-10T05:33:49;19.20;99.90
9810;DHT22;4944;52.514;13.192;2023-06-10T05:36:15;19.20;99.90
9810;DHT22;4944;52.514;13.192;2023-06-10T05:38:44;19.30;99.90
9810;DHT22;4944;52.514;13.192;2023-06-10T05:41:11;19.40;99.90
9810;DHT22;4944;52.514;13.192;2023-06-10T05:43:37;19.40;99.90
9810;DHT22;4944;52.514;13.192;2023-06-10T05:46:05;19.50;99.90
9810;DHT22;4944;52.514;13.192;2023-06-10T05:48:32;19.20;99.90
9810;DHT22;4944;52.514;13.192;2023-06-10T05:50:59;19.30;99.90
9810;DHT22;4944;52.514;13.192;2023-06-10T05:53:26;19.30;99.90
9810;DHT22;4944;52.514;13.192;2023-06-10T05:55:55;19.30;99.90
9810;DHT22;4944;52.514;13.192;2023-06-10T05:58:23;19.40;99.90
9810;DHT22;4944;52.514;13.192;2023-06-10T06:00:50;19.40;99.90
9810;DHT22;4944;52.514;13.192;2023-06-10T06:03:17;19.40;99.90
9810;DHT22;4944;52.514;13.192;2023-06-10T06:05:44;19.40;99.90
9810;DHT22;4944;52.514;13.192;2023-06-10T06:08:11;19.40;99.90
9810;DHT22;4944;52.514;13.192;2023-06-10T06:10:42;19.40;99.90
9810;DHT22;4944;52.514;13.192;2023-06-10T06:13:11;19.40;99.90
9810;DHT22;4944;52.514;13.192;2023-06-10T06:15:38;19.50;99.90
9810;DHT22;4944;52.514;13.192;2023-06-10T06:18:05;19.40;99.90
9810;DHT22;4944;52.514;13.192;2023-06-10T06:20:32;19.40;99.90
9810;DHT22;4944;52.514;13.192;2023-06-10T06:22:59;19.50;99.90
9810;DHT22;4944;52.514;13.192;2023-06-10T06:25:26;19.50;99.90
9810;DHT22;4944;52.514;13.192;2023-06-10T06:27:53;19.50;99.90
9810;DHT22;4944;52.514;13.192;2023-06-10T06:30:21;19.70;99.90
9810;DHT22;4944;52.514;13.192;2023-06-10T06:32:48;19.80;99.90
9810;DHT22;4944;52.514;13.192;2023-06-10T06:35:15;19.90;99.90
9810;DHT22;4944;52.514;13.192;2023-06-10T06:37:42;20.10;99.90
9810;DHT22;4944;52.514;13.192;2023-06-10T06:40:09;20.20;99.90
9810;DHT22;4944;52.514;13.192;2023-06-10T06:42:36;20.20;99.90
9810;DHT22;4944;52.514;13.192;2023-06-10T06:45:04;20.40;99.90
9810;DHT22;4944;52.514;13.192;2023-06-10T06:47:32;20.50;99.90
9810;DHT22;4944;52.514;13.192;2023-06-10T06:49:59;20.50;99.90
9810;DHT22;4944;52.514;13.192;2023-06-10T06:52:26;20.60;99.90
9810;DHT22;4944;52.514;13.192;2023-06-10T06:54:53;20.70;99.90
9810;DHT22;4944;52.514;13.192;2023-06-10T06:57:20;20.70;99.90
9810;DHT22;4944;52.514;13.192;2023-06-10T06:59:48;20.80;99.90
9810;DHT22;4944;52.514;13.192;2023-06-10T07:02:15;20.90;99.90
9810;DHT22;4944;52.514;13.192;2023-06-10T07:04:43;20.90;99.90
9810;DHT22;4944;52.514;13.192;2023-06-10T07:07:11;21.10;99.90
9810;DHT22;4944;52.514;13.192;2023-06-10T07:09:38;21.20;99.90
9810;DHT22;4944;52.514;13.192;2023-06-10T07:12:06;21.20;99.90
9810;DHT22;4944;52.514;13.192;2023-06-10T07:14:33;21.30;99.90
9810;DHT22;4944;52.514;13.192;2023-06-10T07:17:00;21.40;99.90
9810;DHT22;4944;52.514;13.192;2023-06-10T07:19:27;21.40;99.90
9810;DHT22;4944;52.514;13.192;2023-06-10T07:21:55;21.30;99.90
9810;DHT22;4944;52.514;13.192;2023-06-10T07:24:22;21.40;99.90
9810;DHT22;4944;52.514;13.192;2023-06-10T07:26:50;21.40;99.90
9810;DHT22;4944;52.514;13.192;2023-06-10T07:29:17;21.40;99.90
9810;DHT22;4944;52.514;13.192;2023-06-10T07:31:44;21.40;99.90
9810;DHT22;4944;52.514;13.192;2023-06-10T07:34:10;21.50;99.90
9810;DHT22;4944;52.514;13.192;2023-06-10T07:36:37;21.40;99.90
9810;DHT22;4944;52.514;13.192;2023-06-10T07:39:09;21.40;99.90
9810;DHT22;4944;52.514;13.192;2023-06-10T07:41:36;21.50;99.90
9810;DHT22;4944;52.514;13.192;2023-06-10T07:44:03;21.50;99.90
9810;DHT22;4944;52.514;13.192;2023-06-10T07:46:30;21.60;99.90
9810;DHT22;4944;52.514;13.192;2023-06-10T07:48:56;21.70;99.90
9810;DHT22;4944;52.514;13.192;2023-06-10T07:51:23;21.70;99.90
9810;DHT22;4944;52.514;13.192;2023-06-10T07:53:50;21.70;99.90
9810;DHT22;4944;52.514;13.192;2023-06-10T07:56:18;21.90;99.90
9810;DHT22;4944;52.514;13.192;2023-06-10T07:58:47;22.00;99.90
9810;DHT22;4944;52.514;13.192;2023-06-10T08:01:14;22.10;99.90
9810;DHT22;4944;52.514;13.192;2023-06-10T08:03:40;22.20;99.90
9810;DHT22;4944;52.514;13.192;2023-06-10T08:06:07;22.20;99.90
9810;DHT22;4944;52.514;13.192;2023-06-10T08:08:36;22.30;99.90
9810;DHT22;4944;52.514;13.192;2023-06-10T08:11:07;22.30;99.90
9810;DHT22;4944;52.514;13.192;2023-06-10T08:13:35;22.40;99.90
9810;DHT22;4944;52.514;13.192;2023-06-10T08:16:02;22.50;99.90
9810;DHT22;4944;52.514;13.192;2023-06-10T08:18:29;22.60;99.90
9810;DHT22;4944;52.514;13.192;2023-06-10T08:20:56;22.60;99.90
9810;DHT22;4944;52.514;13.192;2023-06-10T08:23:23;22.70;99.90
9810;DHT22;4944;52.514;13.192;2023-06-10T08:25:50;22.80;99.90
9810;DHT22;4944;52.514;13.192;2023-06-10T08:28:18;22.80;99.90
9810;DHT22;4944;52.514;13.192;2023-06-10T08:30:46;22.90;99.90
9810;DHT22;4944;52.514;13.192;2023-06-10T08:33:13;22.90;99.90
9810;DHT22;4944;52.514;13.192;2023-06-10T08:35:40;23.00;99.90
9810;DHT22;4944;52.514;13.192;2023-06-10T08:38:07;23.10;99.90
9810;DHT22;4944;52.514;13.192;2023-06-10T08:40:34;23.20;99.90
9810;DHT22;4944;52.514;13.192;2023-06-10T08:43:05;23.30;99.90
9810;DHT22;4944;52.514;13.192;2023-06-10T08:45:35;23.50;99.90
9810;DHT22;4944;52.514;13.192;2023-06-10T08:48:04;23.60;99.90
9810;DHT22;4944;52.514;13.192;2023-06-10T08:50:34;23.70;99.90
9810;DHT22;4944;52.514;13.192;2023-06-10T08:53:02;23.80;99.90
9810;DHT22;4944;52.514;13.192;2023-06-10T08:55:32;23.80;99.90
9810;DHT22;4944;52.514;13.192;2023-06-10T08:57:59;23.80;99.90
9810;DHT22;4944;52.514;13.192;2023-06-10T09:00:26;23.80;99.90
9810;DHT22;4944;52.514;13.192;2023-06-10T09:02:54;23.90;99.90
9810;DHT22;4944;52.514;13.192;2023-06-10T09:05:23;24.00;99.90
9810;DHT22;4944;52.514;13.192;2023-06-10T09:07:51;24.00;99.90
9810;DHT22;4944;52.514;13.192;2023-06-10T09:10:19;24.00;99.90
9810;DHT22;4944;52.514;13.192;2023-06-10T09:12:46;24.10;99.90
9810;DHT22;4944;52.514;13.192;2023-06-10T09:15:13;24.20;99.90
9810;DHT22;4944;52.514;13.192;2023-06-10T09:17:42;24.30;99.80
9810;DHT22;4944;52.514;13.192;2023-06-10T09:20:10;24.30;99.80
9810;DHT22;4944;52.514;13.192;2023-06-10T09:22:40;24.30;99.70
9810;DHT22;4944;52.514;13.192;2023-06-10T09:25:10;24.40;99.40
9810;DHT22;4944;52.514;13.192;2023-06-10T09:27:44;24.40;99.20
9810;DHT22;4944;52.514;13.192;2023-06-10T09:30:24;24.40;99.10
9810;DHT22;4944;52.514;13.192;2023-06-10T09:32:53;24.40;99.00
9810;DHT22;4944;52.514;13.192;2023-06-10T09:35:21;24.50;99.00
9810;DHT22;4944;52.514;13.192;2023-06-10T09:37:51;24.50;99.10
9810;DHT22;4944;52.514;13.192;2023-06-10T09:40:19;24.50;99.00
9810;DHT22;4944;52.514;13.192;2023-06-10T09:42:46;24.50;99.10
9810;DHT22;4944;52.514;13.192;2023-06-10T09:45:19;24.40;99.40
9810;DHT22;4944;52.514;13.192;2023-06-10T09:47:46;24.40;99.20
9810;DHT22;4944;52.514;13.192;2023-06-10T09:50:13;24.40;99.10
9810;DHT22;4944;52.514;13.192;2023-06-10T09:52:39;24.40;99.00
9810;DHT22;4944;52.514;13.192;2023-06-10T09:55:09;24.40;99.20
9810;DHT22;4944;52.514;13.192;2023-06-10T09:57:37;24.40;99.30
9810;DHT22;4944;52.514;13.192;2023-06-10T10:00:05;24.40;99.40
9810;DHT22;4944;52.514;13.192;2023-06-10T10:02:44;24.40;99.70
9810;DHT22;4944;52.514;13.192;2023-06-10T10:05:13;24.40;99.60
9810;DHT22;4944;52.514;13.192;2023-06-10T10:07:40;24.40;99.70
9810;DHT22;4944;52.514;13.192;2023-06-10T10:10:09;24.40;99.30
9810;DHT22;4944;52.514;13.192;2023-06-10T10:12:37;24.40;99.20
9810;DHT22;4944;52.514;13.192;2023-06-10T10:15:06;24.40;99.30
9810;DHT22;4944;52.514;13.192;2023-06-10T10:17:34;24.40;99.30
9810;DHT22;4944;52.514;13.192;2023-06-10T10:20:05;24.40;99.20
9810;DHT22;4944;52.514;13.192;2023-06-10T10:22:37;24.40;99.10
9810;DHT22;4944;52.514;13.192;2023-06-10T10:25:11;24.40;98.90
9810;DHT22;4944;52.514;13.192;2023-06-10T10:27:44;24.40;99.00
9810;DHT22;4944;52.514;13.192;2023-06-10T10:30:14;24.30;99.00
9810;DHT22;4944;52.514;13.192;2023-06-10T10:32:50;24.30;99.00
9810;DHT22;4944;52.514;13.192;2023-06-10T10:35:21;24.30;99.20
9810;DHT22;4944;52.514;13.192;2023-06-10T10:37:51;24.20;99.20
9810;DHT22;4944;52.514;13.192;2023-06-10T10:40:20;24.20;99.20
9810;DHT22;4944;52.514;13.192;2023-06-10T10:42:48;24.20;99.20
9810;DHT22;4944;52.514;13.192;2023-06-10T10:45:16;24.10;99.30
9810;DHT22;4944;52.514;13.192;2023-06-10T10:47:44;24.10;99.50
9810;DHT22;4944;52.514;13.192;2023-06-10T10:50:15;24.10;99.80
9810;DHT22;4944;52.514;13.192;2023-06-10T10:52:53;24.00;99.90
9810;DHT22;4944;52.514;13.192;2023-06-10T10:55:22;23.90;99.90
9810;DHT22;4944;52.514;13.192;2023-06-10T10:57:57;23.80;99.90
9810;DHT22;4944;52.514;13.192;2023-06-10T11:00:28;23.70;99.90
9810;DHT22;4944;52.514;13.192;2023-06-10T11:02:58;23.70;99.90
9810;DHT22;4944;52.514;13.192;2023-06-10T11:05:36;23.70;99.90
9810;DHT22;4944;52.514;13.192;2023-06-10T11:08:04;23.70;99.90
9810;DHT22;4944;52.514;13.192;2023-06-10T11:10:33;23.60;99.90
9810;DHT22;4944;52.514;13.192;2023-06-10T11:13:01;23.60;99.90
9810;DHT22;4944;52.514;13.192;2023-06-10T11:15:32;23.60;99.90
9810;DHT22;4944;52.514;13.192;2023-06-10T11:18:13;23.70;99.90
9810;DHT22;4944;52.514;13.192;2023-06-10T11:20:52;23.60;99.90
9810;DHT22;4944;52.514;13.192;2023-06-10T11:23:39;23.50;99.90
9810;DHT22;4944;52.514;13.192;2023-06-10T11:26:11;23.50;99.90
9810;DHT22;4944;52.514;13.192;2023-06-10T11:28:38;23.60;99.90
9810;DHT22;4944;52.514;13.192;2023-06-10T11:31:06;23.70;99.90
9810;DHT22;4944;52.514;13.192;2023-06-10T11:33:33;23.80;99.90
9810;DHT22;4944;52.514;13.192;2023-06-10T11:36:00;23.90;99.90
9810;DHT22;4944;52.514;13.192;2023-06-10T11:38:28;24.00;99.70
9810;DHT22;4944;52.514;13.192;2023-06-10T11:40:55;24.00;99.30
9810;DHT22;4944;52.514;13.192;2023-06-10T11:43:24;24.00;98.80
9810;DHT22;4944;52.514;13.192;2023-06-10T11:45:54;24.10;98.40
9810;DHT22;4944;52.514;13.192;2023-06-10T11:48:21;24.20;98.50
9810;DHT22;4944;52.514;13.192;2023-06-10T11:50:48;24.30;98.60
9810;DHT22;4944;52.514;13.192;2023-06-10T11:53:15;24.40;98.70
9810;DHT22;4944;52.514;13.192;2023-06-10T11:55:44;24.40;98.60
9810;DHT22;4944;52.514;13.192;2023-06-10T11:58:13;24.60;98.40
9810;DHT22;4944;52.514;13.192;2023-06-10T12:00:46;24.70;98.30
9810;DHT22;4944;52.514;13.192;2023-06-10T12:03:13;24.80;98.10
9810;DHT22;4944;52.514;13.192;2023-06-10T12:05:40;24.90;98.00
9810;DHT22;4944;52.514;13.192;2023-06-10T12:08:11;25.00;97.80
9810;DHT22;4944;52.514;13.192;2023-06-10T12:10:40;25.10;97.40
9810;DHT22;4944;52.514;13.192;2023-06-10T12:13:07;25.20;97.20
9810;DHT22;4944;52.514;13.192;2023-06-10T12:15:35;25.40;97.10
9810;DHT22;4944;52.514;13.192;2023-06-10T12:18:03;25.40;97.10
9810;DHT22;4944;52.514;13.192;2023-06-10T12:20:32;25.50;97.10
9810;DHT22;4944;52.514;13.192;2023-06-10T12:23:00;25.50;97.00
9810;DHT22;4944;52.514;13.192;2023-06-10T12:25:28;25.50;96.90
9810;DHT22;4944;52.514;13.192;2023-06-10T12:27:56;25.50;96.90
9810;DHT22;4944;52.514;13.192;2023-06-10T12:30:24;25.50;96.70
9810;DHT22;4944;52.514;13.192;2023-06-10T12:32:52;25.40;96.80
9810;DHT22;4944;52.514;13.192;2023-06-10T12:35:21;25.60;97.00
9810;DHT22;4944;52.514;13.192;2023-06-10T12:37:57;26.00;96.90
9810;DHT22;4944;52.514;13.192;2023-06-10T12:40:28;26.40;96.50
9810;DHT22;4944;52.514;13.192;2023-06-10T12:42:57;26.80;96.60
9810;DHT22;4944;52.514;13.192;2023-06-10T12:45:27;27.20;96.40
9810;DHT22;4944;52.514;13.192;2023-06-10T12:48:04;27.60;96.00
9810;DHT22;4944;52.514;13.192;2023-06-10T12:50:35;27.90;95.70
9810;DHT22;4944;52.514;13.192;2023-06-10T12:53:02;28.30;95.70
9810;DHT22;4944;52.514;13.192;2023-06-10T12:55:29;28.50;95.50
9810;DHT22;4944;52.514;13.192;2023-06-10T12:57:56;28.70;94.90
9810;DHT22;4944;52.514;13.192;2023-06-10T13:00:23;28.80;94.20
9810;DHT22;4944;52.514;13.192;2023-06-10T13:02:51;29.00;94.20
9810;DHT22;4944;52.514;13.192;2023-06-10T13:05:19;29.20;93.10
9810;DHT22;4944;52.514;13.192;2023-06-10T13:07:47;29.30;92.90
9810;DHT22;4944;52.514;13.192;2023-06-10T13:10:15;29.40;92.50
9810;DHT22;4944;52.514;13.192;2023-06-10T13:12:43;29.60;91.90
9810;DHT22;4944;52.514;13.192;2023-06-10T13:15:10;29.80;90.50
9810;DHT22;4944;52.514;13.192;2023-06-10T13:17:37;29.90;89.80
9810;DHT22;4944;52.514;13.192;2023-06-10T13:20:06;30.00;90.00
9810;DHT22;4944;52.514;13.192;2023-06-10T13:22:34;30.20;90.50
9810;DHT22;4944;52.514;13.192;2023-06-10T13:25:04;30.40;90.10
9810;DHT22;4944;52.514;13.192;2023-06-10T13:27:32;30.40;90.10
9810;DHT22;4944;52.514;13.192;2023-06-10T13:29:59;30.60;90.20
9810;DHT22;4944;52.514;13.192;2023-06-10T13:32:26;30.70;89.90
9810;DHT22;4944;52.514;13.192;2023-06-10T13:34:53;30.80;89.20
9810;DHT22;4944;52.514;13.192;2023-06-10T13:37:19;30.90;89.90
9810;DHT22;4944;52.514;13.192;2023-06-10T13:39:46;31.10;89.10
9810;DHT22;4944;52.514;13.192;2023-06-10T13:42:15;31.10;88.90
9810;DHT22;4944;52.514;13.192;2023-06-10T13:44:42;31.20;88.50
9810;DHT22;4944;52.514;13.192;2023-06-10T13:47:09;31.20;89.00
9810;DHT22;4944;52.514;13.192;2023-06-10T13:49:36;31.30;88.80
9810;DHT22;4944;52.514;13.192;2023-06-10T13:52:04;31.40;88.10
9810;DHT22;4944;52.514;13.192;2023-06-10T13:54:31;31.50;86.60
9810;DHT22;4944;52.514;13.192;2023-06-10T13:56:58;31.50;86.00
9810;DHT22;4944;52.514;13.192;2023-06-10T13:59:27;31.50;85.80
9810;DHT22;4944;52.514;13.192;2023-06-10T14:01:54;31.60;85.80
9810;DHT22;4944;52.514;13.192;2023-06-10T14:04:21;31.70;86.20
9810;DHT22;4944;52.514;13.192;2023-06-10T14:06:48;31.80;86.00
9810;DHT22;4944;52.514;13.192;2023-06-10T14:09:15;31.90;86.30
9810;DHT22;4944;52.514;13.192;2023-06-10T14:11:42;32.10;86.10
9810;DHT22;4944;52.514;13.192;2023-06-10T14:14:09;32.00;82.80
9810;DHT22;4944;52.514;13.192;2023-06-10T14:16:37;32.20;82.80
9810;DHT22;4944;52.514;13.192;2023-06-10T14:19:04;32.30;82.40
9810;DHT22;4944;52.514;13.192;2023-06-10T14:21:31;32.30;82.50
9810;DHT22;4944;52.514;13.192;2023-06-10T14:23:59;32.30;80.60
9810;DHT22;4944;52.514;13.192;2023-06-10T14:26:25;32.20;80.30
9810;DHT22;4944;52.514;13.192;2023-06-10T14:28:52;32.20;79.90
9810;DHT22;4944;52.514;13.192;2023-06-10T14:31:19;32.10;80.30
9810;DHT22;4944;52.514;13.192;2023-06-10T14:33:47;32.20;80.80
9810;DHT22;4944;52.514;13.192;2023-06-10T14:36:14;32.30;81.70
9810;DHT22;4944;52.514;13.192;2023-06-10T14:38:42;32.50;81.70
9810;DHT22;4944;52.514;13.192;2023-06-10T14:41:08;32.60;82.20
9810;DHT22;4944;52.514;13.192;2023-06-10T14:43:35;32.70;82.50
9810;DHT22;4944;52.514;13.192;2023-06-10T14:46:02;32.70;81.50
9810;DHT22;4944;52.514;13.192;2023-06-10T14:48:29;32.80;81.60
9810;DHT22;4944;52.514;13.192;2023-06-10T14:50:57;32.80;80.90
9810;DHT22;4944;52.514;13.192;2023-06-10T14:53:24;32.70;78.90
9810;DHT22;4944;52.514;13.192;2023-06-10T14:55:51;32.70;77.60
9810;DHT22;4944;52.514;13.192;2023-06-10T14:58:18;32.70;77.40
9810;DHT22;4944;52.514;13.192;2023-06-10T15:00:45;32.80;77.30
9810;DHT22;4944;52.514;13.192;2023-06-10T15:03:12;32.90;76.80
9810;DHT22;4944;52.514;13.192;2023-06-10T15:05:38;33.00;74.90
9810;DHT22;4944;52.514;13.192;2023-06-10T15:08:07;32.90;72.30
9810;DHT22;4944;52.514;13.192;2023-06-10T15:10:33;32.90;72.50
9810;DHT22;4944;52.514;13.192;2023-06-10T15:13:00;33.00;72.60
9810;DHT22;4944;52.514;13.192;2023-06-10T15:15:27;33.00;73.10
9810;DHT22;4944;52.514;13.192;2023-06-10T15:17:54;33.00;73.30
9810;DHT22;4944;52.514;13.192;2023-06-10T15:20:21;33.10;74.00
9810;DHT22;4944;52.514;13.192;2023-06-10T15:22:48;33.20;74.20
9810;DHT22;4944;52.514;13.192;2023-06-10T15:25:16;33.20;73.90
9810;DHT22;4944;52.514;13.192;2023-06-10T15:27:43;33.20;74.50
9810;DHT22;4944;52.514;13.192;2023-06-10T15:30:10;33.20;73.40
9810;DHT22;4944;52.514;13.192;2023-06-10T15:32:37;33.20;72.10
9810;DHT22;4944;52.514;13.192;2023-06-10T15:35:05;33.20;71.50
9810;DHT22;4944;52.514;13.192;2023-06-10T15:37:32;33.20;71.60
9810;DHT22;4944;52.514;13.192;2023-06-10T15:39:59;33.30;71.20
9810;DHT22;4944;52.514;13.192;2023-06-10T15:42:27;33.30;70.60
9810;DHT22;4944;52.514;13.192;2023-06-10T15:44:54;33.30;70.70
9810;DHT22;4944;52.514;13.192;2023-06-10T15:47:20;33.20;69.60
9810;DHT22;4944;52.514;13.192;2023-06-10T15:49:47;33.30;70.30